Strona główna
METAR-TAF:

METAR-TAF

Lotnisko :

Port lotniczy Liège

Liège, Belgia

Szerokość geograficzna: 50-39N, Długość geograficzna: 005-27E, wysokość: 186 m

Aktualna obserwacja pogody

Raport powstał 25 minut temu, godzina 23:50 UTC
Wiatr 7 kt od południowy wschód
Temperatura 25°C
Wilgotność 50%
Ciśnienie 1016 hPa
Widzialność 10 km lub więcej
Brak chmur poniżej 1500 m i brak chmur cumulonimbus

METAR: EBLG 232350Z 13007KT CAVOK 25/14 Q1016 NOSIG

czas: 02:15 (00:15 UTC)

Prognoza

Raport powstał 55 minut temu, godzina 23:20 UTC
Prognoza ważna od 24 godzina 00 UTC do 25 godzina 06 UTC
Wiatr 6 kt od południowy wschód
Widzialność 10 km lub więcej
Brak chmur poniżej 1500 m i brak chmur cumulonimbus

TAF: EBLG 232320Z 2400/2506 13006KT CAVOK

Obserwacja i prognoza pogody dla ponad 4000 lotnisk (raport METAR i TAF).

Dostępne stacje oznaczono żółtymi i czerwonymi punktami na mapie.

Najedź kursorem aby zobaczyć nazwę stacji.

Kliknij aby zobaczyć obserwacje i prognozy pogody.

Aby zmienić mapę: kliknij na zielony przycisk z czarnym krzyżykiem, aby powiększyć; na zielony przycisk z myślnikiem, aby pomniejszyć; na zielone strzałki, aby przejść do map sąsiednich.


METAR-TAF: